^^
Lisbon, NH - Weather Station Historical Data
Daily Summary for June 24, 2021 Units:  English    Metric   Both
Daily Weekly Monthly Yearly
  High: Low: Average:
Temperature: 77 °F 43.5 °F 62.5 °F
Dew Point: 53.9 °F 43.5 °F 47.6 °F
Humidity: 100% 32.7% 64%
Wind Speed: 5.6mph 0mph 1.6mph
Wind Gust: 15mph - -
Wind- - SSW
Pressure: 30.38 in 30.23 in -
Precipitation: 0.00 in    
 
 
Tabular Data for June 24, 2021
Time Temperature Dew Point Pressure Wind Wind Speed Wind Gust Humidity Rainfall Rate (Hourly) solar
00:04 48.2 °F 47.1 °F 30.25 in Calm     96% 0.00 in 0 W/m2
00:09 48 °F 46.9 °F 30.25 in Calm     96% 0.00 in 0 W/m2
00:14 48 °F 46.9 °F 30.25 in Calm     96% 0.00 in 0 W/m2
00:19 48 °F 46.9 °F 30.25 in Calm     96% 0.00 in 0 W/m2
00:24 47.9 °F 47 °F 30.25 in Calm     96.8% 0.00 in 0 W/m2
00:29 47.7 °F 46.9 °F 30.25 in Calm     97% 0.00 in 0 W/m2
00:34 47.6 °F 46.8 °F 30.25 in Calm     97% 0.00 in 0 W/m2
00:39 47.5 °F 46.7 °F 30.25 in Calm     97% 0.00 in 0 W/m2
00:44 47.4 °F 46.6 °F 30.26 in Calm     97% 0.00 in 0 W/m2
00:49 47.2 °F 46.4 °F 30.26 in Calm     97% 0.00 in 0 W/m2
00:54 47 °F 46.2 °F 30.26 in Calm     97% 0.00 in 0 W/m2
00:59 46.8 °F 46 °F 30.27 in Calm     97% 0.00 in 0 W/m2
01:04 46.7 °F 46 °F 30.27 in Calm     97.1% 0.00 in 0 W/m2
01:09 46.6 °F 46 °F 30.27 in Calm     97.8% 0.00 in 0 W/m2
01:14 46.5 °F 46 °F 30.27 in Calm     98% 0.00 in 0 W/m2
01:19 46.5 °F 45.9 °F 30.27 in Calm     98% 0.00 in 0 W/m2
01:24 46.4 °F 45.8 °F 30.27 in Calm     98% 0.00 in 0 W/m2
01:29 46.2 °F 45.7 °F 30.28 in Calm     98% 0.00 in 0 W/m2
01:34 46.1 °F 45.6 °F 30.28 in Calm     98% 0.00 in 0 W/m2
01:39 46 °F 45.5 °F 30.28 in Calm     98% 0.00 in 0 W/m2
01:44 45.8 °F 45.3 °F 30.28 in Calm     98% 0.00 in 0 W/m2
01:49 45.7 °F 45.3 °F 30.28 in Calm     98.3% 0.00 in 0 W/m2
01:54 45.6 °F 45.2 °F 30.28 in Calm     98.5% 0.00 in 0 W/m2
01:59 45.5 °F 45.2 °F 30.28 in Calm     99% 0.00 in 0 W/m2
02:04 45.4 °F 45.1 °F 30.28 in Calm     99% 0.00 in 0 W/m2
02:09 45.3 °F 45.1 °F 30.28 in Calm     99% 0.00 in 0 W/m2
02:14 45.2 °F 44.9 °F 30.29 in Calm     99% 0.00 in 0 W/m2
02:19 45.1 °F 44.8 °F 30.29 in Calm     99% 0.00 in 0 W/m2
02:24 45.1 °F 44.8 °F 30.29 in Calm     99% 0.00 in 0 W/m2
02:29 45 °F 44.8 °F 30.29 in Calm     99% 0.00 in 0 W/m2
02:34 44.9 °F 44.6 °F 30.29 in Calm     99% 0.00 in 0 W/m2
02:35 44.9 °F 44.6 °F 30.29 in Calm     99% 0.00 in 0 W/m2
02:44 44.9 °F 44.7 °F 30.29 in Calm     99.4% 0.00 in 0 W/m2
02:49 44.9 °F 44.7 °F 30.29 in Calm     99.3% 0.00 in 0 W/m2
02:54 44.9 °F 44.9 °F 30.29 in Calm     100% 0.00 in 0 W/m2
02:59 44.9 °F 44.9 °F 30.30 in Calm     100% 0.00 in 0 W/m2
03:04 44.9 °F 44.9 °F 30.30 in Calm     100% 0.00 in 0 W/m2
03:09 44.9 °F 44.9 °F 30.30 in Calm     100% 0.00 in 0 W/m2
03:14 44.9 °F 44.9 °F 30.30 in Calm     100% 0.00 in 0 W/m2
03:19 44.9 °F 44.9 °F 30.30 in Calm     100% 0.00 in 0 W/m2
03:24 45 °F 45 °F 30.30 in Calm   1 mph 100% 0.00 in 0 W/m2
03:29 44.9 °F 44.9 °F 30.30 in NE 0.4 mph 2 mph 100% 0.00 in 0 W/m2
03:34 44.9 °F 44.9 °F 30.30 in NNE 0.8 mph 2 mph 100% 0.00 in 0 W/m2
03:39 44.9 °F 44.9 °F 30.30 in NE 1.3 mph 2 mph 100% 0.00 in 0 W/m2
03:44 44.9 °F 44.9 °F 30.30 in NE 0.6 mph 2 mph 100% 0.00 in 0 W/m2
03:49 44.8 °F 44.8 °F 30.30 in NE 0.4 mph 2 mph 100% 0.00 in 0 W/m2
03:54 44.7 °F 44.7 °F 30.30 in NE 0.2 mph 1 mph 100% 0.00 in 0 W/m2
03:59 44.6 °F 44.6 °F 30.31 in NE 0.5 mph 1 mph 100% 0.00 in 0 W/m2
04:04 44.6 °F 44.6 °F 30.31 in NE 0.4 mph 2 mph 100% 0.00 in 0 W/m2
04:09 44.5 °F 44.5 °F 30.31 in NE 0.3 mph 2 mph 100% 0.00 in 0 W/m2
04:14 44.5 °F 44.5 °F 30.31 in NE 1.2 mph 3 mph 100% 0.00 in 0 W/m2
04:19 44.3 °F 44.3 °F 30.31 in NE 0.8 mph 2 mph 100% 0.00 in 0 W/m2
04:24 44.3 °F 44.3 °F 30.31 in Calm   1 mph 100% 0.00 in 0 W/m2
04:29 44.2 °F 44.2 °F 30.32 in NE 0.2 mph 1 mph 100% 0.00 in 0 W/m2
04:34 44.1 °F 44.1 °F 30.32 in Calm     100% 0.00 in 0 W/m2
04:39 43.9 °F 43.9 °F 30.32 in Calm     100% 0.00 in 0 W/m2
04:44 43.8 °F 43.8 °F 30.32 in Calm     100% 0.00 in 0 W/m2
04:49 43.7 °F 43.7 °F 30.32 in Calm     100% 0.00 in 0 W/m2
04:54 43.6 °F 43.6 °F 30.32 in Calm   1 mph 100% 0.00 in 0 W/m2
04:59 43.6 °F 43.6 °F 30.33 in Calm   1 mph 100% 0.00 in 5 W/m2
05:04 43.6 °F 43.6 °F 30.33 in Calm     100% 0.00 in 5 W/m2
05:09 43.6 °F 43.6 °F 30.33 in NE 0.1 mph 1 mph 100% 0.00 in 7 W/m2
05:14 43.6 °F 43.6 °F 30.33 in Calm     100% 0.00 in 9 W/m2
05:19 43.6 °F 43.6 °F 30.33 in NE 0.3 mph 1 mph 100% 0.00 in 12 W/m2
05:24 43.6 °F 43.6 °F 30.33 in NE 1 mph 3 mph 100% 0.00 in 16 W/m2
05:29 43.6 °F 43.6 °F 30.34 in NE 0.6 mph 2 mph 100% 0.00 in 21 W/m2
05:34 43.6 °F 43.6 °F 30.34 in ENE 1.3 mph 2 mph 100% 0.00 in 25 W/m2
05:39 43.6 °F 43.6 °F 30.34 in NE 1.1 mph 2 mph 100% 0.00 in 30 W/m2
05:44 43.5 °F 43.5 °F 30.34 in NE 0.5 mph 2 mph 100% 0.00 in 30 W/m2
05:49 43.6 °F 43.6 °F 30.34 in NE 0.2 mph 1 mph 100% 0.00 in 40 W/m2
05:54 43.6 °F 43.6 °F 30.34 in Calm   1 mph 100% 0.00 in 42 W/m2
05:59 43.6 °F 43.6 °F 30.35 in NE 0.1 mph 1 mph 100% 0.00 in 49 W/m2
06:04 43.6 °F 43.6 °F 30.35 in NE 0.7 mph 2 mph 100% 0.00 in 55 W/m2
06:09 43.8 °F 43.8 °F 30.35 in NE 0.2 mph 2 mph 100% 0.00 in 60 W/m2
06:14 43.9 °F 43.9 °F 30.35 in Calm     100% 0.00 in 63 W/m2
06:19 44 °F 44 °F 30.35 in NE 0.7 mph 2 mph 100% 0.00 in 76 W/m2
06:24 44.1 °F 44.1 °F 30.35 in NE 0.5 mph 2 mph 100% 0.00 in 79 W/m2
06:29 44.1 °F 44.1 °F 30.36 in Calm     100% 0.00 in 153 W/m2
06:34 44.4 °F 44.4 °F 30.36 in NE 0.5 mph 2 mph 100% 0.00 in 194 W/m2
06:39 45 °F 45 °F 30.36 in NE 0.5 mph 2 mph 100% 0.00 in 230 W/m2
06:44 45.4 °F 45.4 °F 30.37 in ENE 0.5 mph 2 mph 100% 0.00 in 190 W/m2
06:49 45.7 °F 45.7 °F 30.37 in ESE 0.6 mph 2 mph 100% 0.00 in 192 W/m2
06:54 45.8 °F 45.8 °F 30.37 in SSE 0.9 mph 2 mph 100% 0.00 in 310 W/m2
06:59 46.4 °F 46.4 °F 30.37 in ESE 0.3 mph 2 mph 100% 0.00 in 320 W/m2
07:04 47.1 °F 47.1 °F 30.37 in ESE 1.1 mph 2 mph 100% 0.00 in 336 W/m2
07:09 47.3 °F 47.3 °F 30.37 in South 1.2 mph 2 mph 100% 0.00 in 345 W/m2
07:14 47.4 °F 47.4 °F 30.38 in South 1.2 mph 3 mph 100% 0.00 in 347 W/m2
07:19 47.6 °F 47.6 °F 30.38 in South 1.3 mph 2 mph 100% 0.00 in 373 W/m2
07:24 48.2 °F 48.2 °F 30.38 in SSW 0.6 mph 2 mph 100% 0.00 in 394 W/m2
07:29 49.2 °F 49 °F 30.38 in South 0.6 mph 2 mph 99.4% 0.00 in 406 W/m2
07:34 50 °F 49.6 °F 30.38 in South 0.5 mph 2 mph 98.6% 0.00 in 428 W/m2
07:39 50.7 °F 49.8 °F 30.38 in SSE 0.5 mph 2 mph 96.8% 0.00 in 443 W/m2
07:44 51.3 °F 49.9 °F 30.38 in SE 0.5 mph 2 mph 95.1% 0.00 in 457 W/m2
07:49 52 °F 49.9 °F 30.38 in East 0.9 mph 2 mph 92.6% 0.00 in 477 W/m2
07:54 52.5 °F 49.5 °F 30.38 in East 1.1 mph 2 mph 89.5% 0.00 in 493 W/m2
07:59 53.1 °F 49.4 °F 30.38 in East 1 mph 2 mph 87.2% 0.00 in 507 W/m2
08:04 53.7 °F 49.5 °F 30.38 in SSE 1.1 mph 3 mph 85.8% 0.00 in 519 W/m2
08:09 54.1 °F 49.6 °F 30.38 in South 1 mph 3 mph 84.5% 0.00 in 538 W/m2
08:14 54.6 °F 49.7 °F 30.38 in South 1 mph 3 mph 83.2% 0.00 in 551 W/m2
08:19 55.6 °F 50.3 °F 30.38 in SSW 1.1 mph 3 mph 82.6% 0.00 in 568 W/m2
08:24 56.4 °F 50.8 °F 30.38 in SSW 1.5 mph 6 mph 81.6% 0.00 in 582 W/m2
08:29 57.1 °F 50.9 °F 30.38 in SSW 2.3 mph 6 mph 79.6% 0.00 in 598 W/m2
08:34 57.5 °F 50.7 °F 30.38 in South 1.2 mph 6 mph 78% 0.00 in 612 W/m2
08:39 58 °F 50.6 °F 30.38 in South 2.1 mph 5 mph 76.4% 0.00 in 628 W/m2
08:44 58.5 °F 50.8 °F 30.38 in SSW 2.2 mph 6 mph 75.6% 0.00 in 644 W/m2
08:49 58.6 °F 50.2 °F 30.37 in SSW 2.2 mph 6 mph 73.5% 0.00 in 655 W/m2
08:54 58.8 °F 50.4 °F 30.37 in SSW 1.6 mph 5 mph 73.5% 0.00 in 669 W/m2
08:59 59.7 °F 50.9 °F 30.37 in SSW 1.3 mph 6 mph 72.6% 0.00 in 686 W/m2
09:04 60.5 °F 50.7 °F 30.36 in South 2.1 mph 3 mph 70.1% 0.00 in 700 W/m2
09:09 60.7 °F 51 °F 30.36 in ESE 2 mph 4 mph 70.3% 0.00 in 713 W/m2
09:14 61.4 °F 51.1 °F 30.36 in SE 1.2 mph 3 mph 68.7% 0.00 in 727 W/m2
09:19 61.6 °F 51 °F 30.36 in South 2.1 mph 4 mph 68.2% 0.00 in 739 W/m2
09:24 61.8 °F 51.4 °F 30.36 in SSW 1.8 mph 5 mph 68.7% 0.00 in 753 W/m2
09:29 62.5 °F 51.9 °F 30.36 in South 1 mph 4 mph 68.2% 0.00 in 767 W/m2
09:34 63.1 °F 51.6 °F 30.36 in SSW 2.1 mph 5 mph 66.2% 0.00 in 779 W/m2
09:39 63.4 °F 52 °F 30.36 in South 0.2 mph 3 mph 66.4% 0.00 in 790 W/m2
09:44 64.7 °F 53 °F 30.36 in SE 0.8 mph 3 mph 65.9% 0.00 in 804 W/m2
09:49 65.4 °F 52.4 °F 30.35 in SSW 2.1 mph 6 mph 62.7% 0.00 in 815 W/m2
09:54 65.7 °F 52.5 °F 30.35 in South 1.7 mph 5 mph 62.5% 0.00 in 827 W/m2
09:59 66.2 °F 52.9 °F 30.35 in SSW 1.6 mph 5 mph 62.1% 0.00 in 838 W/m2
10:04 66.8 °F 53.2 °F 30.34 in SSW 1.8 mph 5 mph 61.5% 0.00 in 848 W/m2
10:09 67.2 °F 53.2 °F 30.34 in SSW 2.1 mph 5 mph 60.8% 0.00 in 853 W/m2
10:14 67.4 °F 53.1 °F 30.34 in South 1.9 mph 3 mph 60% 0.00 in 864 W/m2
10:19 68 °F 53.4 °F 30.34 in South 1.5 mph 3 mph 59.6% 0.00 in 882 W/m2
10:24 68.3 °F 53.3 °F 30.34 in South 1.6 mph 3 mph 58.9% 0.00 in 892 W/m2
10:29 68.7 °F 53.9 °F 30.34 in East 0.9 mph 3 mph 59% 0.00 in 903 W/m2
10:34 69.6 °F 53.5 °F 30.33 in SE 0.7 mph 3 mph 56.6% 0.00 in 913 W/m2
10:39 70.6 °F 53.7 °F 30.33 in SSW 3.2 mph 8 mph 55.2% 0.00 in 918 W/m2
10:44 71.4 °F 53.3 °F 30.33 in WSW 1.4 mph 7 mph 52.9% 0.00 in 926 W/m2
10:49 72 °F 52.4 °F 30.33 in SW 4.1 mph 8 mph 50.1% 0.00 in 938 W/m2
10:54 72.5 °F 52 °F 30.33 in SW 1.9 mph 7 mph 48.5% 0.00 in 947 W/m2
10:59 73 °F 51.5 °F 30.33 in West 2.1 mph 5 mph 46.9% 0.00 in 955 W/m2
11:04 73.6 °F 49.6 °F 30.32 in SSW 4.6 mph 15 mph 42.9% 0.00 in 964 W/m2
11:09 73.3 °F 46.4 °F 30.32 in SW 4.2 mph 13 mph 38.3% 0.00 in 952 W/m2
11:14 73 °F 46.1 °F 30.32 in WSW 2.9 mph 10 mph 38.3% 0.00 in 971 W/m2
11:19 73 °F 47.1 °F 30.32 in WSW 2.8 mph 11 mph 39.8% 0.00 in 980 W/m2
11:24 73 °F 46.9 °F 30.32 in SW 4.2 mph 14 mph 39.4% 0.00 in 987 W/m2
11:29 73.3 °F 48 °F 30.32 in SW 2.6 mph 11 mph 40.8% 0.00 in 991 W/m2
11:34 73.6 °F 47.4 °F 30.32 in WSW 2.5 mph 12 mph 39.4% 0.00 in 994 W/m2
11:39 73.8 °F 48.1 °F 30.32 in SW 3.5 mph 10 mph 40.1% 0.00 in 1001 W/m2
11:44 73.9 °F 48.4 °F 30.32 in WSW 3.5 mph 10 mph 40.4% 0.00 in 1006 W/m2
11:49 74.1 °F 48.7 °F 30.32 in WSW 2.7 mph 10 mph 40.6% 0.00 in 1008 W/m2
11:54 74.4 °F 48.4 °F 30.32 in SW 3.6 mph 11 mph 39.7% 0.00 in 1012 W/m2
11:59 74.6 °F 47.5 °F 30.32 in SW 2.6 mph 11 mph 38.2% 0.00 in 1015 W/m2
12:04 74.6 °F 47.8 °F 30.31 in SW 3.4 mph 10 mph 38.6% 0.00 in 1019 W/m2
12:09 74.8 °F 48.7 °F 30.31 in SW 2.7 mph 12 mph 39.8% 0.00 in 1022 W/m2
12:14 74.9 °F 46.5 °F 30.31 in South 2.8 mph 11 mph 36.5% 0.00 in 1022 W/m2
12:19 75.1 °F 47.4 °F 30.31 in WSW 2 mph 7 mph 37.5% 0.00 in 1024 W/m2
12:24 75.5 °F 49.7 °F 30.31 in SW 2.2 mph 10 mph 40.3% 0.00 in 1024 W/m2
12:29 75.5 °F 47.8 °F 30.31 in SW 4 mph 13 mph 37.5% 0.00 in 1026 W/m2
12:34 75.2 °F 48.2 °F 30.31 in SW 2.4 mph 8 mph 38.4% 0.00 in 1028 W/m2
12:39 75.3 °F 46.6 °F 30.31 in SW 5 mph 13 mph 36.1% 0.00 in 1024 W/m2
12:44 75.1 °F 47.7 °F 30.31 in SW 3.3 mph 13 mph 37.9% 0.00 in 1022 W/m2
12:49 75.3 °F 46.1 °F 30.30 in SW 3.8 mph 9 mph 35.4% 0.00 in 1021 W/m2
12:54 75.5 °F 45.9 °F 30.30 in NE 3 mph 8 mph 35% 0.00 in 1021 W/m2
12:59 75.8 °F 46.2 °F 30.30 in SW 2.8 mph 12 mph 34.9% 0.00 in 1021 W/m2
13:04 76.1 °F 47.4 °F 30.30 in WNW 1.8 mph 8 mph 36.3% 0.00 in 1019 W/m2
13:09 76 °F 46.6 °F 30.30 in SW 4.6 mph 13 mph 35.3% 0.00 in 1019 W/m2
13:14 76 °F 46.8 °F 30.30 in West 1.6 mph 13 mph 35.6% 0.00 in 1015 W/m2
13:19 76.3 °F 48.6 °F 30.30 in WSW 2.7 mph 12 mph 37.6% 0.00 in 1012 W/m2
13:24 76.3 °F 47.9 °F 30.30 in SW 2.5 mph 9 mph 36.6% 0.00 in 1008 W/m2
13:29 76.6 °F 48.5 °F 30.30 in WSW 3 mph 10 mph 37.2% 0.00 in 1005 W/m2
13:34 76.7 °F 46.4 °F 30.30 in West 2.3 mph 8 mph 34.2% 0.00 in 1003 W/m2
13:39 76.4 °F 45.8 °F 30.30 in WSW 2.7 mph 8 mph 33.7% 0.00 in 999 W/m2
13:44 76.3 °F 45.4 °F 30.30 in WSW 3.7 mph 12 mph 33.4% 0.00 in 994 W/m2
13:49 76.1 °F 46.1 °F 30.29 in WSW 2.1 mph 12 mph 34.6% 0.00 in 984 W/m2
13:54 76.2 °F 46 °F 30.29 in SW 2.6 mph 14 mph 34.4% 0.00 in 980 W/m2
13:59 76.3 °F 46.1 °F 30.29 in SW 2.9 mph 10 mph 34.3% 0.00 in 970 W/m2
14:04 76.5 °F 47.5 °F 30.29 in West 1.2 mph 10 mph 35.9% 0.00 in 962 W/m2
14:09 76.8 °F 48 °F 30.29 in SW 1.9 mph 8 mph 36.2% 0.00 in 957 W/m2
14:14 77 °F 47.7 °F 30.29 in WSW 2.8 mph 10 mph 35.5% 0.00 in 950 W/m2
14:19 77 °F 47.5 °F 30.29 in WSW 2 mph 6 mph 35.3% 0.00 in 941 W/m2
14:24 77 °F 46.9 °F 30.29 in SSW 2.3 mph 10 mph 34.5% 0.00 in 934 W/m2
14:29 77 °F 47.3 °F 30.29 in SSW 3 mph 9 mph 35.1% 0.00 in 931 W/m2
14:34 76.9 °F 48.2 °F 30.29 in WSW 3 mph 10 mph 36.4% 0.00 in 931 W/m2
14:39 76.6 °F 46.7 °F 30.29 in SSW 3.9 mph 12 mph 34.8% 0.00 in 350 W/m2
14:44 76.3 °F 47.3 °F 30.29 in SW 3.2 mph 9 mph 35.9% 0.00 in 109 W/m2
14:49 76.3 °F 47.9 °F 30.29 in SW 2.1 mph 8 mph 36.7% 0.00 in 322 W/m2
14:54 76.3 °F 48 °F 30.29 in SW 3.9 mph 11 mph 36.9% 0.00 in 322 W/m2
14:59 76.1 °F 46.9 °F 30.29 in SW 3 mph 11 mph 35.5% 0.00 in 116 W/m2
15:04 76 °F 46.7 °F 30.29 in SSW 4.2 mph 10 mph 35.4% 0.00 in 102 W/m2
15:09 76.1 °F 46.5 °F 30.29 in SSW 3 mph 10 mph 35% 0.00 in 503 W/m2
15:14 76.3 °F 48.5 °F 30.29 in SW 2.5 mph 8 mph 37.5% 0.00 in 503 W/m2
15:19 76.4 °F 49 °F 30.28 in WSW 2.1 mph 8 mph 38% 0.00 in 503 W/m2
15:24 76.4 °F 47.3 °F 30.28 in WSW 3.5 mph 8 mph 35.7% 0.00 in 79 W/m2
15:29 76.1 °F 46.9 °F 30.28 in SW 2.4 mph 10 mph 35.5% 0.00 in 62 W/m2
15:34 76.1 °F 47 °F 30.28 in SW 4.9 mph 11 mph 35.7% 0.00 in 63 W/m2
15:39 76.1 °F 47 °F 30.28 in SW 2.7 mph 11 mph 35.8% 0.00 in 84 W/m2
15:44 76.1 °F 47.3 °F 30.28 in SW 3.9 mph 8 mph 36.1% 0.00 in 55 W/m2
15:49 76.1 °F 47.5 °F 30.27 in WSW 2.4 mph 11 mph 36.4% 0.00 in 69 W/m2
15:54 76 °F 47.6 °F 30.27 in WSW 2.3 mph 11 mph 36.6% 0.00 in 74 W/m2
15:59 76.1 °F 45.7 °F 30.27 in SW 4.7 mph 13 mph 34% 0.00 in 99 W/m2
16:04 76.1 °F 45.5 °F 30.27 in SW 4.7 mph 11 mph 33.8% 0.00 in 58 W/m2
16:09 76.1 °F 45.1 °F 30.27 in SSW 3.1 mph 11 mph 33.1% 0.00 in 167 W/m2
16:14 76.3 °F 45.9 °F 30.27 in SSW 5.6 mph 14 mph 34% 0.00 in 167 W/m2
16:19 76.3 °F 45.7 °F 30.25 in SW 2.7 mph 12 mph 33.7% 0.00 in 190 W/m2
16:24 76.3 °F 45 °F 30.25 in SSW 4.2 mph 11 mph 32.9% 0.00 in 165 W/m2
16:29 76.5 °F 46.1 °F 30.25 in SSW 2.9 mph 14 mph 34% 0.00 in 125 W/m2
16:34 76.6 °F 45.8 °F 30.25 in SSW 2.5 mph 14 mph 33.5% 0.00 in 285 W/m2
16:39 76.7 °F 46.7 °F 30.25 in WSW 3.1 mph 11 mph 34.6% 0.00 in 285 W/m2
16:44 76.5 °F 46.6 °F 30.25 in South 3.6 mph 9 mph 34.7% 0.00 in 53 W/m2
16:49 76.5 °F 47.9 °F 30.25 in SW 2.3 mph 10 mph 36.4% 0.00 in 77 W/m2
16:54 76.5 °F 46.4 °F 30.25 in SW 4.6 mph 10 mph 34.4% 0.00 in 84 W/m2
16:59 76.5 °F 46.5 °F 30.25 in SW 3.8 mph 13 mph 34.5% 0.00 in 88 W/m2
17:04 76.5 °F 46.1 °F 30.25 in SSW 3.6 mph 13 mph 34.1% 0.00 in 79 W/m2
17:09 76.4 °F 45.5 °F 30.25 in SSW 4.4 mph 14 mph 33.4% 0.00 in 79 W/m2
17:14 76.3 °F 44.8 °F 30.25 in SSW 4.9 mph 12 mph 32.7% 0.00 in 49 W/m2
17:19 76.3 °F 44.9 °F 30.24 in SSW 3.1 mph 13 mph 32.7% 0.00 in 51 W/m2
17:24 76.3 °F 45.7 °F 30.24 in South 2.9 mph 10 mph 33.7% 0.00 in 44 W/m2
17:29 76.5 °F 47.1 °F 30.24 in SW 2.6 mph 7 mph 35.3% 0.00 in 44 W/m2
17:34 76.4 °F 45.2 °F 30.24 in SW 3.4 mph 12 mph 33.1% 0.00 in 44 W/m2
17:39 76.3 °F 45.4 °F 30.24 in SSW 1.8 mph 6 mph 33.4% 0.00 in 44 W/m2
17:44 76.3 °F 45.9 °F 30.24 in South 2.8 mph 10 mph 34% 0.00 in 42 W/m2
17:49 76.3 °F 45.3 °F 30.23 in SSW 3.2 mph 10 mph 33.3% 0.00 in 42 W/m2
17:54 76.3 °F 45.9 °F 30.23 in NE 1.2 mph 8 mph 34% 0.00 in 42 W/m2
17:59 76.1 °F 45.7 °F 30.23 in SE 2.7 mph 11 mph 34% 0.00 in 42 W/m2
18:04 76.1 °F 45.9 °F 30.23 in SSW 4.6 mph 13 mph 34.2% 0.00 in 40 W/m2
18:09 76.1 °F 46 °F 30.23 in SW 3.4 mph 8 mph 34.4% 0.00 in 40 W/m2
18:14 76 °F 46.5 °F 30.23 in SSW 2.1 mph 8 mph 35.1% 0.00 in 42 W/m2
18:19 76 °F 46.4 °F 30.23 in SSE 2.3 mph 11 mph 35% 0.00 in 40 W/m2
18:24 75.8 °F 45.3 °F 30.23 in SSW 3.4 mph 10 mph 33.8% 0.00 in 39 W/m2
18:29 75.8 °F 46.3 °F 30.23 in ESE 2.4 mph 7 mph 35.1% 0.00 in 39 W/m2
18:34 75.8 °F 46.4 °F 30.23 in SW 2.9 mph 11 mph 35.2% 0.00 in 39 W/m2
18:39 75.6 °F 46.4 °F 30.23 in South 1.1 mph 3 mph 35.5% 0.00 in 39 W/m2
18:44 75.6 °F 47.7 °F 30.23 in SW 1.1 mph 4 mph 37.2% 0.00 in 37 W/m2
18:49 75.4 °F 47 °F 30.23 in South 3.3 mph 14 mph 36.5% 0.00 in 37 W/m2
18:54 75.3 °F 46.7 °F 30.23 in South 2.2 mph 8 mph 36.2% 0.00 in 40 W/m2
18:59 75.3 °F 47.1 °F 30.23 in SSW 2.9 mph 7 mph 36.8% 0.00 in 35 W/m2
19:04 75.1 °F 47.4 °F 30.23 in SSW 1.8 mph 6 mph 37.3% 0.00 in 35 W/m2
19:09 75 °F 47.3 °F 30.23 in South 1.6 mph 5 mph 37.5% 0.00 in 33 W/m2
19:14 74.9 °F 47.8 °F 30.23 in SW 1.3 mph 5 mph 38.3% 0.00 in 35 W/m2
19:19 74.7 °F 47.9 °F 30.23 in NNW 1.3 mph 6 mph 38.8% 0.00 in 35 W/m2
19:24 74.6 °F 48 °F 30.23 in SSW 2 mph 6 mph 39.1% 0.00 in 32 W/m2
19:29 74.3 °F 48.6 °F 30.23 in SW 1.1 mph 6 mph 40.3% 0.00 in 30 W/m2
19:34 74 °F 48.7 °F 30.23 in SSW 1.1 mph 4 mph 40.8% 0.00 in 26 W/m2
19:39 73.8 °F 47.8 °F 30.23 in SW 2.8 mph 10 mph 39.8% 0.00 in 21 W/m2
19:44 73.6 °F 47.8 °F 30.23 in SW 0.4 mph 5 mph 40% 0.00 in 18 W/m2
19:49 73.4 °F 48.5 °F 30.23 in SSW 2 mph 5 mph 41.4% 0.00 in 14 W/m2
19:54 73.2 °F 49.6 °F 30.23 in SW 1.7 mph 8 mph 43.4% 0.00 in 14 W/m2
19:59 72.9 °F 50.2 °F 30.23 in SW 2.1 mph 7 mph 44.9% 0.00 in 12 W/m2
20:04 72.5 °F 50.8 °F 30.23 in SSW 2 mph 7 mph 46.4% 0.00 in 11 W/m2
20:09 72 °F 50.9 °F 30.23 in SSW 3.4 mph 8 mph 47.3% 0.00 in 9 W/m2
20:14 71.7 °F 51.2 °F 30.23 in SSW 1.6 mph 7 mph 48.5% 0.00 in 9 W/m2
20:19 71.3 °F 51.7 °F 30.23 in SW 1.7 mph 4 mph 49.8% 0.00 in 7 W/m2
20:24 70.9 °F 51.8 °F 30.23 in West 1 mph 5 mph 50.8% 0.00 in 5 W/m2
20:29 70.5 °F 51.8 °F 30.24 in SSW 1.8 mph 8 mph 51.5% 0.00 in 5 W/m2
20:34 70.2 °F 51.8 °F 30.24 in ENE 1.6 mph 5 mph 52% 0.00 in 5 W/m2
20:39 69.7 °F 51.7 °F 30.24 in WSW 1.7 mph 7 mph 52.6% 0.00 in 0 W/m2
20:44 69.4 °F 51.5 °F 30.25 in SSW 1.7 mph 8 mph 53% 0.00 in 0 W/m2
20:49 69 °F 51.2 °F 30.25 in SSW 3.6 mph 13 mph 53.2% 0.00 in 0 W/m2
20:54 68.6 °F 51.2 °F 30.25 in SSW 3.2 mph 12 mph 53.8% 0.00 in 0 W/m2
20:59 68.4 °F 51 °F 30.25 in South 1.5 mph 11 mph 53.8% 0.00 in 0 W/m2
21:04 68.1 °F 50.9 °F 30.25 in SW 2.6 mph 6 mph 54.2% 0.00 in 0 W/m2
21:09 67.8 °F 51 °F 30.25 in West 1.3 mph 6 mph 54.8% 0.00 in 0 W/m2
21:14 67.5 °F 51.2 °F 30.26 in SSW 0.7 mph 6 mph 55.8% 0.00 in 0 W/m2
21:19 67.2 °F 51 °F 30.26 in NNW 0.3 mph 2 mph 56.1% 0.00 in 0 W/m2
21:24 66.8 °F 51.2 °F 30.26 in NNW 0.4 mph 2 mph 57.3% 0.00 in 0 W/m2
21:29 66.3 °F 51.1 °F 30.28 in West 0.8 mph 3 mph 58% 0.00 in 0 W/m2
21:34 66 °F 50.9 °F 30.28 in NNW 0.1 mph 1 mph 58% 0.00 in 0 W/m2
21:39 65.7 °F 50.6 °F 30.28 in WNW 0.4 mph 2 mph 58.2% 0.00 in 0 W/m2
21:44 65.6 °F 50.8 °F 30.29 in SW 0.6 mph 6 mph 59% 0.00 in 0 W/m2
21:49 65.4 °F 50.7 °F 30.29 in WSW 0.5 mph 3 mph 59% 0.00 in 0 W/m2
21:54 65.2 °F 50.5 °F 30.29 in West 1.8 mph 7 mph 59% 0.00 in 0 W/m2
21:59 65.2 °F 49.9 °F 30.29 in WSW 3.2 mph 8 mph 57.7% 0.00 in 0 W/m2
22:04 65.3 °F 49.5 °F 30.29 in SW 2.9 mph 7 mph 56.5% 0.00 in 0 W/m2
22:09 65.5 °F 49.8 °F 30.29 in WSW 2.1 mph 10 mph 56.8% 0.00 in 0 W/m2
22:14 65.3 °F 49.8 °F 30.29 in WNW 1.2 mph 3 mph 57.1% 0.00 in 0 W/m2
22:19 65.2 °F 49.7 °F 30.29 in WNW 0.9 mph 3 mph 57.1% 0.00 in 0 W/m2
22:24 65 °F 49.7 °F 30.29 in WNW 0.5 mph 2 mph 57.7% 0.00 in 0 W/m2
22:29 64.8 °F 49.5 °F 30.29 in WNW 1.4 mph 5 mph 57.6% 0.00 in 0 W/m2
22:34 64.7 °F 49.3 °F 30.29 in WNW 0.4 mph 2 mph 57.4% 0.00 in 0 W/m2
22:39 64.4 °F 49.4 °F 30.29 in NW 0.7 mph 3 mph 58% 0.00 in 0 W/m2
22:44 64.2 °F 49.3 °F 30.29 in NW 0.6 mph 2 mph 58.3% 0.00 in 0 W/m2
22:49 64 °F 49.4 °F 30.29 in NW 0.3 mph 2 mph 59% 0.00 in 0 W/m2
22:54 63.8 °F 49.2 °F 30.29 in NW 0.7 mph 2 mph 59% 0.00 in 0 W/m2
22:59 63.6 °F 48.9 °F 30.29 in WNW 0.5 mph 2 mph 58.8% 0.00 in 0 W/m2
23:04 63.4 °F 48.9 °F 30.29 in West 0.2 mph 2 mph 59.3% 0.00 in 0 W/m2
23:09 63.2 °F 48.9 °F 30.29 in WSW 0.8 mph 5 mph 59.7% 0.00 in 0 W/m2
23:14 63 °F 48.9 °F 30.29 in NNW 0.4 mph 3 mph 60% 0.00 in 0 W/m2
23:19 62.9 °F 48.8 °F 30.29 in WNW 0.8 mph 3 mph 60% 0.00 in 0 W/m2
23:24 62.7 °F 48.4 °F 30.29 in NW 1.5 mph 5 mph 59.6% 0.00 in 0 W/m2
23:29 62.8 °F 48.1 °F 30.29 in SW 1.7 mph 5 mph 58.6% 0.00 in 0 W/m2
23:34 63 °F 48 °F 30.29 in SSE 2.7 mph 8 mph 58% 0.00 in 0 W/m2
23:39 63.1 °F 48 °F 30.29 in South 2.2 mph 10 mph 57.8% 0.00 in 0 W/m2
23:44 63.1 °F 48.1 °F 30.29 in South 3 mph 13 mph 58% 0.00 in 0 W/m2
23:49 63 °F 48 °F 30.29 in SSE 2 mph 13 mph 58% 0.00 in 0 W/m2
23:54 62.9 °F 47.9 °F 30.29 in SW 1.5 mph 4 mph 58% 0.00 in 0 W/m2
23:59 62.7 °F 48 °F 30.30 in ENE 1.4 mph 5 mph 58.6% 0.00 in 0 W/m2
Lisbon, New Hampshire, USA
Compliments of Weather Underground - 4 mb